Terminal Aerodrome Forecast
Issued by NWS

Home | Current Version | Previous Version | Text Only | Print | Product List | Glossary On
Versions: 1 2 3 4 5 6 7 8 9 10 11 12 13 14 15 16 17 18 19 20 21 22
000
FTUS43 KDTX 012221 AAB
TAFDET
TAF AMD
KDET 012221Z 0122/0218 05018G25KT 1/2SM SN BLSN VV015
     FM020300 02018G25KT 3/4SM -SN BLSN VV007
     FM020700 36018KT 2SM -SN OVC012
     FM021100 34015KT P6SM OVC020
     FM021600 30010KT P6SM BKN035=

USA.gov is the U.S. government's official web portal to all federal, state and local government web resources and services.